sensor_id;sensor_type;location;lat;lon;timestamp;temperature;humidity
16980;DHT22;42288;52.182;21.156;2023-07-02T00:02:16;18.40;99.90
16980;DHT22;42288;52.182;21.156;2023-07-02T00:04:44;18.40;99.90
16980;DHT22;42288;52.182;21.156;2023-07-02T00:07:09;18.40;99.90
16980;DHT22;42288;52.182;21.156;2023-07-02T00:09:35;18.40;99.90
16980;DHT22;42288;52.182;21.156;2023-07-02T00:12:00;18.40;99.90
16980;DHT22;42288;52.182;21.156;2023-07-02T00:14:26;18.30;99.90
16980;DHT22;42288;52.182;21.156;2023-07-02T00:16:51;18.40;99.90
16980;DHT22;42288;52.182;21.156;2023-07-02T00:19:17;18.30;99.90
16980;DHT22;42288;52.182;21.156;2023-07-02T00:21:43;18.30;99.90
16980;DHT22;42288;52.182;21.156;2023-07-02T00:24:09;18.30;99.90
16980;DHT22;42288;52.182;21.156;2023-07-02T00:26:35;18.20;99.90
16980;DHT22;42288;52.182;21.156;2023-07-02T00:29:02;18.20;99.90
16980;DHT22;42288;52.182;21.156;2023-07-02T00:31:29;18.30;99.90
16980;DHT22;42288;52.182;21.156;2023-07-02T00:33:55;18.20;99.90
16980;DHT22;42288;52.182;21.156;2023-07-02T00:36:20;18.20;99.90
16980;DHT22;42288;52.182;21.156;2023-07-02T00:38:47;18.20;99.90
16980;DHT22;42288;52.182;21.156;2023-07-02T00:41:14;18.20;99.90
16980;DHT22;42288;52.182;21.156;2023-07-02T00:43:40;18.20;99.90
16980;DHT22;42288;52.182;21.156;2023-07-02T00:46:19;18.20;99.90
16980;DHT22;42288;52.182;21.156;2023-07-02T00:48:49;18.20;99.90
16980;DHT22;42288;52.182;21.156;2023-07-02T00:51:23;18.20;99.90
16980;DHT22;42288;52.182;21.156;2023-07-02T00:53:51;18.20;99.90
16980;DHT22;42288;52.182;21.156;2023-07-02T00:56:17;18.20;99.90
16980;DHT22;42288;52.182;21.156;2023-07-02T00:58:45;18.30;99.90
16980;DHT22;42288;52.182;21.156;2023-07-02T01:01:20;18.20;99.90
16980;DHT22;42288;52.182;21.156;2023-07-02T01:04:01;18.20;99.90
16980;DHT22;42288;52.182;21.156;2023-07-02T01:06:29;18.20;99.90
16980;DHT22;42288;52.182;21.156;2023-07-02T01:09:00;18.30;99.90
16980;DHT22;42288;52.182;21.156;2023-07-02T01:11:40;18.20;99.90
16980;DHT22;42288;52.182;21.156;2023-07-02T01:14:11;18.20;99.90
16980;DHT22;42288;52.182;21.156;2023-07-02T01:16:39;18.20;99.90
16980;DHT22;42288;52.182;21.156;2023-07-02T01:19:12;18.20;99.90
16980;DHT22;42288;52.182;21.156;2023-07-02T01:21:39;18.20;99.90
16980;DHT22;42288;52.182;21.156;2023-07-02T01:24:05;18.20;99.90
16980;DHT22;42288;52.182;21.156;2023-07-02T01:26:31;18.20;99.90
16980;DHT22;42288;52.182;21.156;2023-07-02T01:28:59;18.20;99.90
16980;DHT22;42288;52.182;21.156;2023-07-02T01:31:25;18.20;99.90
16980;DHT22;42288;52.182;21.156;2023-07-02T01:33:51;18.20;99.90
16980;DHT22;42288;52.182;21.156;2023-07-02T01:36:18;18.30;99.90
16980;DHT22;42288;52.182;21.156;2023-07-02T01:38:43;18.20;99.90
16980;DHT22;42288;52.182;21.156;2023-07-02T01:41:09;18.00;99.90
16980;DHT22;42288;52.182;21.156;2023-07-02T01:43:34;17.90;99.90
16980;DHT22;42288;52.182;21.156;2023-07-02T01:46:00;17.90;99.90
16980;DHT22;42288;52.182;21.156;2023-07-02T01:48:27;17.90;99.90
16980;DHT22;42288;52.182;21.156;2023-07-02T01:50:52;17.90;99.90
16980;DHT22;42288;52.182;21.156;2023-07-02T01:53:18;17.90;99.90
16980;DHT22;42288;52.182;21.156;2023-07-02T01:55:44;17.80;99.90
16980;DHT22;42288;52.182;21.156;2023-07-02T01:58:09;17.90;99.90
16980;DHT22;42288;52.182;21.156;2023-07-02T02:00:35;17.90;99.90
16980;DHT22;42288;52.182;21.156;2023-07-02T02:03:01;18.00;99.90
16980;DHT22;42288;52.182;21.156;2023-07-02T02:05:27;18.00;99.90
16980;DHT22;42288;52.182;21.156;2023-07-02T02:07:52;18.00;99.90
16980;DHT22;42288;52.182;21.156;2023-07-02T02:10:18;18.00;99.90
16980;DHT22;42288;52.182;21.156;2023-07-02T02:12:43;17.90;99.90
16980;DHT22;42288;52.182;21.156;2023-07-02T02:15:09;18.00;99.90
16980;DHT22;42288;52.182;21.156;2023-07-02T02:17:36;18.10;99.90
16980;DHT22;42288;52.182;21.156;2023-07-02T02:20:02;18.10;99.90
16980;DHT22;42288;52.182;21.156;2023-07-02T02:22:29;18.20;99.90
16980;DHT22;42288;52.182;21.156;2023-07-02T02:24:54;18.20;99.90
16980;DHT22;42288;52.182;21.156;2023-07-02T02:27:20;18.20;99.90
16980;DHT22;42288;52.182;21.156;2023-07-02T02:29:46;18.20;99.90
16980;DHT22;42288;52.182;21.156;2023-07-02T02:32:11;18.20;99.90
16980;DHT22;42288;52.182;21.156;2023-07-02T02:34:37;18.20;99.90
16980;DHT22;42288;52.182;21.156;2023-07-02T02:37:02;18.20;99.90
16980;DHT22;42288;52.182;21.156;2023-07-02T02:39:28;18.20;99.90
16980;DHT22;42288;52.182;21.156;2023-07-02T02:41:53;18.30;99.90
16980;DHT22;42288;52.182;21.156;2023-07-02T02:44:19;18.30;99.90
16980;DHT22;42288;52.182;21.156;2023-07-02T02:46:45;18.30;99.90
16980;DHT22;42288;52.182;21.156;2023-07-02T02:49:10;18.30;99.90
16980;DHT22;42288;52.182;21.156;2023-07-02T02:51:36;18.30;99.90
16980;DHT22;42288;52.182;21.156;2023-07-02T02:54:01;18.30;99.90
16980;DHT22;42288;52.182;21.156;2023-07-02T02:56:27;18.40;99.90
16980;DHT22;42288;52.182;21.156;2023-07-02T02:58:53;18.40;99.90
16980;DHT22;42288;52.182;21.156;2023-07-02T03:01:19;18.50;99.90
16980;DHT22;42288;52.182;21.156;2023-07-02T03:03:44;18.50;99.90
16980;DHT22;42288;52.182;21.156;2023-07-02T03:06:14;18.50;99.90
16980;DHT22;42288;52.182;21.156;2023-07-02T03:08:40;18.50;99.90
16980;DHT22;42288;52.182;21.156;2023-07-02T03:11:06;18.50;99.90
16980;DHT22;42288;52.182;21.156;2023-07-02T03:13:31;18.50;99.90
16980;DHT22;42288;52.182;21.156;2023-07-02T03:15:57;18.40;99.90
16980;DHT22;42288;52.182;21.156;2023-07-02T03:18:22;18.50;99.90
16980;DHT22;42288;52.182;21.156;2023-07-02T03:20:48;18.50;99.90
16980;DHT22;42288;52.182;21.156;2023-07-02T03:23:13;18.60;99.90
16980;DHT22;42288;52.182;21.156;2023-07-02T03:25:39;18.60;99.90
16980;DHT22;42288;52.182;21.156;2023-07-02T03:28:04;18.60;99.90
16980;DHT22;42288;52.182;21.156;2023-07-02T03:30:30;18.70;99.90
16980;DHT22;42288;52.182;21.156;2023-07-02T03:32:57;18.70;99.90
16980;DHT22;42288;52.182;21.156;2023-07-02T03:35:22;18.80;99.90
16980;DHT22;42288;52.182;21.156;2023-07-02T03:37:48;18.80;99.90
16980;DHT22;42288;52.182;21.156;2023-07-02T03:40:14;18.80;99.90
16980;DHT22;42288;52.182;21.156;2023-07-02T03:42:39;18.70;99.90
16980;DHT22;42288;52.182;21.156;2023-07-02T03:45:05;18.80;99.90
16980;DHT22;42288;52.182;21.156;2023-07-02T03:47:31;18.80;99.90
16980;DHT22;42288;52.182;21.156;2023-07-02T03:49:56;18.90;99.90
16980;DHT22;42288;52.182;21.156;2023-07-02T03:52:22;18.90;99.90
16980;DHT22;42288;52.182;21.156;2023-07-02T03:54:47;18.90;99.90
16980;DHT22;42288;52.182;21.156;2023-07-02T03:57:13;18.90;99.90
16980;DHT22;42288;52.182;21.156;2023-07-02T03:59:38;18.90;99.90
16980;DHT22;42288;52.182;21.156;2023-07-02T04:02:04;19.00;99.90
16980;DHT22;42288;52.182;21.156;2023-07-02T04:04:30;19.00;99.90
16980;DHT22;42288;52.182;21.156;2023-07-02T04:06:55;19.00;99.90
16980;DHT22;42288;52.182;21.156;2023-07-02T04:09:21;19.00;99.90
16980;DHT22;42288;52.182;21.156;2023-07-02T04:11:47;19.00;99.90
16980;DHT22;42288;52.182;21.156;2023-07-02T04:14:12;19.10;99.90
16980;DHT22;42288;52.182;21.156;2023-07-02T04:16:38;19.10;99.90
16980;DHT22;42288;52.182;21.156;2023-07-02T04:19:03;19.20;99.90
16980;DHT22;42288;52.182;21.156;2023-07-02T04:21:29;19.20;99.90
16980;DHT22;42288;52.182;21.156;2023-07-02T04:23:55;19.30;99.90
16980;DHT22;42288;52.182;21.156;2023-07-02T04:26:21;19.30;99.90
16980;DHT22;42288;52.182;21.156;2023-07-02T04:28:47;19.30;99.90
16980;DHT22;42288;52.182;21.156;2023-07-02T04:31:12;19.30;99.90
16980;DHT22;42288;52.182;21.156;2023-07-02T04:33:38;19.30;99.90
16980;DHT22;42288;52.182;21.156;2023-07-02T04:36:04;19.40;99.90
16980;DHT22;42288;52.182;21.156;2023-07-02T04:38:29;19.40;99.90
16980;DHT22;42288;52.182;21.156;2023-07-02T04:40:55;19.40;99.90
16980;DHT22;42288;52.182;21.156;2023-07-02T04:43:30;19.50;99.90
16980;DHT22;42288;52.182;21.156;2023-07-02T04:45:57;19.50;99.90
16980;DHT22;42288;52.182;21.156;2023-07-02T04:48:22;19.50;99.90
16980;DHT22;42288;52.182;21.156;2023-07-02T04:50:48;19.60;99.90
16980;DHT22;42288;52.182;21.156;2023-07-02T04:53:13;19.60;99.90
16980;DHT22;42288;52.182;21.156;2023-07-02T04:55:39;19.60;99.90
16980;DHT22;42288;52.182;21.156;2023-07-02T04:58:05;19.60;99.90
16980;DHT22;42288;52.182;21.156;2023-07-02T05:00:30;19.60;99.90
16980;DHT22;42288;52.182;21.156;2023-07-02T05:02:56;19.70;99.90
16980;DHT22;42288;52.182;21.156;2023-07-02T05:05:21;19.70;99.90
16980;DHT22;42288;52.182;21.156;2023-07-02T05:07:47;19.80;99.90
16980;DHT22;42288;52.182;21.156;2023-07-02T05:10:12;19.80;99.90
16980;DHT22;42288;52.182;21.156;2023-07-02T05:12:38;19.60;99.90
16980;DHT22;42288;52.182;21.156;2023-07-02T05:15:04;19.80;99.90
16980;DHT22;42288;52.182;21.156;2023-07-02T05:17:30;19.80;99.90
16980;DHT22;42288;52.182;21.156;2023-07-02T05:19:58;19.90;99.90
16980;DHT22;42288;52.182;21.156;2023-07-02T05:22:23;20.00;99.90
16980;DHT22;42288;52.182;21.156;2023-07-02T05:24:49;20.10;99.90
16980;DHT22;42288;52.182;21.156;2023-07-02T05:27:14;20.10;99.90
16980;DHT22;42288;52.182;21.156;2023-07-02T05:29:40;20.20;99.90
16980;DHT22;42288;52.182;21.156;2023-07-02T05:32:06;20.30;99.90
16980;DHT22;42288;52.182;21.156;2023-07-02T05:34:32;20.30;99.90
16980;DHT22;42288;52.182;21.156;2023-07-02T05:36:57;20.40;99.90
16980;DHT22;42288;52.182;21.156;2023-07-02T05:39:23;20.40;99.90
16980;DHT22;42288;52.182;21.156;2023-07-02T05:41:48;20.40;99.90
16980;DHT22;42288;52.182;21.156;2023-07-02T05:44:14;20.40;99.90
16980;DHT22;42288;52.182;21.156;2023-07-02T05:46:39;20.40;99.90
16980;DHT22;42288;52.182;21.156;2023-07-02T05:49:05;20.50;99.90
16980;DHT22;42288;52.182;21.156;2023-07-02T05:51:31;20.60;99.90
16980;DHT22;42288;52.182;21.156;2023-07-02T05:53:57;20.70;99.90
16980;DHT22;42288;52.182;21.156;2023-07-02T05:56:22;20.70;99.90
16980;DHT22;42288;52.182;21.156;2023-07-02T05:58:48;20.90;99.90
16980;DHT22;42288;52.182;21.156;2023-07-02T06:01:14;20.90;99.90
16980;DHT22;42288;52.182;21.156;2023-07-02T06:03:40;21.00;99.90
16980;DHT22;42288;52.182;21.156;2023-07-02T06:06:06;21.00;99.90
16980;DHT22;42288;52.182;21.156;2023-07-02T06:08:31;21.00;99.90
16980;DHT22;42288;52.182;21.156;2023-07-02T06:10:57;21.10;99.90
16980;DHT22;42288;52.182;21.156;2023-07-02T06:13:22;21.20;99.90
16980;DHT22;42288;52.182;21.156;2023-07-02T06:15:48;21.20;99.90
16980;DHT22;42288;52.182;21.156;2023-07-02T06:18:14;21.20;99.90
16980;DHT22;42288;52.182;21.156;2023-07-02T06:20:39;21.20;99.90
16980;DHT22;42288;52.182;21.156;2023-07-02T06:23:05;21.20;99.90
16980;DHT22;42288;52.182;21.156;2023-07-02T06:25:30;21.10;99.90
16980;DHT22;42288;52.182;21.156;2023-07-02T06:27:56;21.20;99.90
16980;DHT22;42288;52.182;21.156;2023-07-02T06:30:24;21.20;99.90
16980;DHT22;42288;52.182;21.156;2023-07-02T06:32:49;21.20;99.90
16980;DHT22;42288;52.182;21.156;2023-07-02T06:35:15;21.30;99.90
16980;DHT22;42288;52.182;21.156;2023-07-02T06:37:41;21.40;99.90
16980;DHT22;42288;52.182;21.156;2023-07-02T06:40:07;21.50;99.90
16980;DHT22;42288;52.182;21.156;2023-07-02T06:42:33;21.60;99.90
16980;DHT22;42288;52.182;21.156;2023-07-02T06:45:01;21.60;99.90
16980;DHT22;42288;52.182;21.156;2023-07-02T06:47:27;21.50;99.90
16980;DHT22;42288;52.182;21.156;2023-07-02T06:49:52;21.60;99.90
16980;DHT22;42288;52.182;21.156;2023-07-02T06:52:18;21.60;99.90
16980;DHT22;42288;52.182;21.156;2023-07-02T06:54:44;21.70;99.90
16980;DHT22;42288;52.182;21.156;2023-07-02T06:57:09;21.80;99.90
16980;DHT22;42288;52.182;21.156;2023-07-02T06:59:35;21.80;99.90
16980;DHT22;42288;52.182;21.156;2023-07-02T07:02:02;21.90;99.90
16980;DHT22;42288;52.182;21.156;2023-07-02T07:04:27;21.90;99.90
16980;DHT22;42288;52.182;21.156;2023-07-02T07:06:53;21.90;99.90
16980;DHT22;42288;52.182;21.156;2023-07-02T07:09:21;22.00;99.90
16980;DHT22;42288;52.182;21.156;2023-07-02T07:11:46;21.90;99.90
16980;DHT22;42288;52.182;21.156;2023-07-02T07:14:12;21.80;99.90
16980;DHT22;42288;52.182;21.156;2023-07-02T07:16:38;21.80;99.90
16980;DHT22;42288;52.182;21.156;2023-07-02T07:19:03;21.80;99.90
16980;DHT22;42288;52.182;21.156;2023-07-02T07:21:29;21.90;99.90
16980;DHT22;42288;52.182;21.156;2023-07-02T07:23:55;22.00;99.90
16980;DHT22;42288;52.182;21.156;2023-07-02T07:26:20;22.00;99.90
16980;DHT22;42288;52.182;21.156;2023-07-02T07:28:46;21.90;99.90
16980;DHT22;42288;52.182;21.156;2023-07-02T07:31:11;22.10;99.90
16980;DHT22;42288;52.182;21.156;2023-07-02T07:33:37;22.20;99.90
16980;DHT22;42288;52.182;21.156;2023-07-02T07:36:02;22.20;99.90
16980;DHT22;42288;52.182;21.156;2023-07-02T07:38:28;22.20;99.90
16980;DHT22;42288;52.182;21.156;2023-07-02T07:40:54;22.10;99.90
16980;DHT22;42288;52.182;21.156;2023-07-02T07:43:19;22.10;99.90
16980;DHT22;42288;52.182;21.156;2023-07-02T07:45:45;22.00;99.90
16980;DHT22;42288;52.182;21.156;2023-07-02T07:48:10;22.10;99.90
16980;DHT22;42288;52.182;21.156;2023-07-02T07:50:36;22.10;99.90
16980;DHT22;42288;52.182;21.156;2023-07-02T07:53:01;22.20;99.90
16980;DHT22;42288;52.182;21.156;2023-07-02T07:55:27;22.30;99.90
16980;DHT22;42288;52.182;21.156;2023-07-02T07:57:53;22.10;99.90
16980;DHT22;42288;52.182;21.156;2023-07-02T08:00:18;22.00;99.90
16980;DHT22;42288;52.182;21.156;2023-07-02T08:02:47;21.90;99.90
16980;DHT22;42288;52.182;21.156;2023-07-02T08:05:13;21.80;99.90
16980;DHT22;42288;52.182;21.156;2023-07-02T08:07:39;21.80;99.90
16980;DHT22;42288;52.182;21.156;2023-07-02T08:10:06;21.70;99.90
16980;DHT22;42288;52.182;21.156;2023-07-02T08:12:33;21.70;99.90
16980;DHT22;42288;52.182;21.156;2023-07-02T08:14:59;21.90;99.90
16980;DHT22;42288;52.182;21.156;2023-07-02T08:17:25;21.90;99.90
16980;DHT22;42288;52.182;21.156;2023-07-02T08:19:50;21.70;99.90
16980;DHT22;42288;52.182;21.156;2023-07-02T08:22:16;21.70;99.90
16980;DHT22;42288;52.182;21.156;2023-07-02T08:24:42;21.80;99.90
16980;DHT22;42288;52.182;21.156;2023-07-02T08:27:07;21.60;99.90
16980;DHT22;42288;52.182;21.156;2023-07-02T08:29:33;21.60;99.90
16980;DHT22;42288;52.182;21.156;2023-07-02T08:31:59;21.80;99.90
16980;DHT22;42288;52.182;21.156;2023-07-02T08:34:24;22.00;99.90
16980;DHT22;42288;52.182;21.156;2023-07-02T08:36:50;22.10;99.90
16980;DHT22;42288;52.182;21.156;2023-07-02T08:39:17;22.20;99.90
16980;DHT22;42288;52.182;21.156;2023-07-02T08:41:44;22.20;99.90
16980;DHT22;42288;52.182;21.156;2023-07-02T08:44:11;22.40;99.90
16980;DHT22;42288;52.182;21.156;2023-07-02T08:46:41;22.50;99.90
16980;DHT22;42288;52.182;21.156;2023-07-02T08:49:08;22.30;99.90
16980;DHT22;42288;52.182;21.156;2023-07-02T08:51:34;22.20;99.90
16980;DHT22;42288;52.182;21.156;2023-07-02T08:54:00;22.20;99.90
16980;DHT22;42288;52.182;21.156;2023-07-02T08:56:26;22.20;99.90
16980;DHT22;42288;52.182;21.156;2023-07-02T08:58:52;22.30;99.90
16980;DHT22;42288;52.182;21.156;2023-07-02T09:01:19;22.40;99.90
16980;DHT22;42288;52.182;21.156;2023-07-02T09:03:44;22.30;99.90
16980;DHT22;42288;52.182;21.156;2023-07-02T09:06:11;22.30;99.90
16980;DHT22;42288;52.182;21.156;2023-07-02T09:08:37;22.40;99.90
16980;DHT22;42288;52.182;21.156;2023-07-02T09:11:14;22.40;99.90
16980;DHT22;42288;52.182;21.156;2023-07-02T09:13:48;22.70;99.90
16980;DHT22;42288;52.182;21.156;2023-07-02T09:16:30;22.70;99.90
16980;DHT22;42288;52.182;21.156;2023-07-02T09:19:07;22.70;99.90
16980;DHT22;42288;52.182;21.156;2023-07-02T09:21:46;22.60;99.90
16980;DHT22;42288;52.182;21.156;2023-07-02T09:24:19;22.50;99.90
16980;DHT22;42288;52.182;21.156;2023-07-02T09:26:46;22.20;99.90
16980;DHT22;42288;52.182;21.156;2023-07-02T09:29:13;22.10;99.90
16980;DHT22;42288;52.182;21.156;2023-07-02T09:31:48;22.00;99.90
16980;DHT22;42288;52.182;21.156;2023-07-02T09:34:15;21.90;99.90
16980;DHT22;42288;52.182;21.156;2023-07-02T09:36:41;22.00;99.90
16980;DHT22;42288;52.182;21.156;2023-07-02T09:39:31;21.80;99.90
16980;DHT22;42288;52.182;21.156;2023-07-02T09:41:58;21.80;99.90
16980;DHT22;42288;52.182;21.156;2023-07-02T09:46:58;21.90;99.90
16980;DHT22;42288;52.182;21.156;2023-07-02T09:49:24;22.00;99.90
16980;DHT22;42288;52.182;21.156;2023-07-02T09:51:51;22.20;99.90
16980;DHT22;42288;52.182;21.156;2023-07-02T09:54:17;22.30;99.90
16980;DHT22;42288;52.182;21.156;2023-07-02T09:56:45;22.20;99.90
16980;DHT22;42288;52.182;21.156;2023-07-02T09:59:11;22.20;99.90
16980;DHT22;42288;52.182;21.156;2023-07-02T10:01:37;21.90;99.90
16980;DHT22;42288;52.182;21.156;2023-07-02T10:04:16;22.20;99.90
16980;DHT22;42288;52.182;21.156;2023-07-02T10:06:48;22.40;99.90
16980;DHT22;42288;52.182;21.156;2023-07-02T10:09:14;22.60;99.90
16980;DHT22;42288;52.182;21.156;2023-07-02T10:11:40;23.00;99.90
16980;DHT22;42288;52.182;21.156;2023-07-02T10:14:05;23.30;99.90
16980;DHT22;42288;52.182;21.156;2023-07-02T10:16:31;23.70;99.90
16980;DHT22;42288;52.182;21.156;2023-07-02T10:19:11;23.90;99.90
16980;DHT22;42288;52.182;21.156;2023-07-02T10:21:37;24.00;99.90
16980;DHT22;42288;52.182;21.156;2023-07-02T10:24:12;24.00;99.90
16980;DHT22;42288;52.182;21.156;2023-07-02T10:26:38;24.10;99.90
16980;DHT22;42288;52.182;21.156;2023-07-02T10:29:06;24.30;99.90
16980;DHT22;42288;52.182;21.156;2023-07-02T10:31:31;24.40;99.90
16980;DHT22;42288;52.182;21.156;2023-07-02T10:33:57;24.30;99.90
16980;DHT22;42288;52.182;21.156;2023-07-02T10:36:24;24.20;99.90
16980;DHT22;42288;52.182;21.156;2023-07-02T10:38:50;24.20;99.90
16980;DHT22;42288;52.182;21.156;2023-07-02T10:41:28;24.40;99.90
16980;DHT22;42288;52.182;21.156;2023-07-02T10:44:04;24.50;99.90
16980;DHT22;42288;52.182;21.156;2023-07-02T10:46:30;24.70;99.90
16980;DHT22;42288;52.182;21.156;2023-07-02T10:48:56;25.00;99.90
16980;DHT22;42288;52.182;21.156;2023-07-02T10:51:23;25.20;99.90
16980;DHT22;42288;52.182;21.156;2023-07-02T10:54:02;25.50;99.90
16980;DHT22;42288;52.182;21.156;2023-07-02T10:56:30;25.30;99.90
16980;DHT22;42288;52.182;21.156;2023-07-02T10:58:56;25.60;99.90
16980;DHT22;42288;52.182;21.156;2023-07-02T11:01:29;25.50;99.90
16980;DHT22;42288;52.182;21.156;2023-07-02T11:03:59;25.30;99.90
16980;DHT22;42288;52.182;21.156;2023-07-02T11:06:27;24.80;99.90
16980;DHT22;42288;52.182;21.156;2023-07-02T11:08:53;24.70;99.90
16980;DHT22;42288;52.182;21.156;2023-07-02T11:11:20;24.60;99.90
16980;DHT22;42288;52.182;21.156;2023-07-02T11:13:47;24.20;99.90
16980;DHT22;42288;52.182;21.156;2023-07-02T11:16:24;24.00;99.90
16980;DHT22;42288;52.182;21.156;2023-07-02T11:18:52;23.80;99.90
16980;DHT22;42288;52.182;21.156;2023-07-02T11:21:18;23.60;99.90
16980;DHT22;42288;52.182;21.156;2023-07-02T11:23:45;23.50;99.90
16980;DHT22;42288;52.182;21.156;2023-07-02T11:26:10;23.50;99.90
16980;DHT22;42288;52.182;21.156;2023-07-02T11:28:36;23.40;99.90
16980;DHT22;42288;52.182;21.156;2023-07-02T11:31:02;23.20;99.90
16980;DHT22;42288;52.182;21.156;2023-07-02T11:33:38;23.10;99.90
16980;DHT22;42288;52.182;21.156;2023-07-02T11:36:06;22.80;99.90
16980;DHT22;42288;52.182;21.156;2023-07-02T11:38:33;22.60;99.90
16980;DHT22;42288;52.182;21.156;2023-07-02T11:40:59;22.40;99.90
16980;DHT22;42288;52.182;21.156;2023-07-02T11:43:25;22.20;99.90
16980;DHT22;42288;52.182;21.156;2023-07-02T11:45:51;22.20;99.90
16980;DHT22;42288;52.182;21.156;2023-07-02T11:48:17;22.40;99.90
16980;DHT22;42288;52.182;21.156;2023-07-02T11:50:43;22.40;99.90
16980;DHT22;42288;52.182;21.156;2023-07-02T11:53:08;22.50;99.90
16980;DHT22;42288;52.182;21.156;2023-07-02T11:55:34;22.50;99.90
16980;DHT22;42288;52.182;21.156;2023-07-02T11:58:00;22.30;99.90
16980;DHT22;42288;52.182;21.156;2023-07-02T12:00:25;22.50;99.90
16980;DHT22;42288;52.182;21.156;2023-07-02T12:02:52;22.60;99.90
16980;DHT22;42288;52.182;21.156;2023-07-02T12:05:18;23.00;99.90
16980;DHT22;42288;52.182;21.156;2023-07-02T12:07:43;23.50;99.90
16980;DHT22;42288;52.182;21.156;2023-07-02T12:10:09;24.00;99.90
16980;DHT22;42288;52.182;21.156;2023-07-02T12:12:35;24.20;99.90
16980;DHT22;42288;52.182;21.156;2023-07-02T12:15:00;24.30;99.90
16980;DHT22;42288;52.182;21.156;2023-07-02T12:17:26;24.40;99.90
16980;DHT22;42288;52.182;21.156;2023-07-02T12:19:51;24.30;99.90
16980;DHT22;42288;52.182;21.156;2023-07-02T12:22:17;24.40;99.90
16980;DHT22;42288;52.182;21.156;2023-07-02T12:24:43;24.70;99.90
16980;DHT22;42288;52.182;21.156;2023-07-02T12:27:09;24.80;99.90
16980;DHT22;42288;52.182;21.156;2023-07-02T12:29:36;25.10;99.90
16980;DHT22;42288;52.182;21.156;2023-07-02T12:32:01;25.20;99.90
16980;DHT22;42288;52.182;21.156;2023-07-02T12:34:27;25.20;99.90
16980;DHT22;42288;52.182;21.156;2023-07-02T12:36:54;25.40;99.90
16980;DHT22;42288;52.182;21.156;2023-07-02T12:39:20;25.40;99.90
16980;DHT22;42288;52.182;21.156;2023-07-02T12:41:45;25.60;99.90
16980;DHT22;42288;52.182;21.156;2023-07-02T12:44:11;25.70;99.90
16980;DHT22;42288;52.182;21.156;2023-07-02T12:46:37;25.40;99.90
16980;DHT22;42288;52.182;21.156;2023-07-02T12:49:02;25.40;99.20
16980;DHT22;42288;52.182;21.156;2023-07-02T12:51:28;25.40;99.70
16980;DHT22;42288;52.182;21.156;2023-07-02T12:53:53;25.30;99.00
16980;DHT22;42288;52.182;21.156;2023-07-02T12:56:19;25.10;97.00
16980;DHT22;42288;52.182;21.156;2023-07-02T12:58:44;25.40;96.50
16980;DHT22;42288;52.182;21.156;2023-07-02T13:01:10;25.40;96.10
16980;DHT22;42288;52.182;21.156;2023-07-02T13:03:36;25.20;95.20
16980;DHT22;42288;52.182;21.156;2023-07-02T13:06:01;25.20;95.80
16980;DHT22;42288;52.182;21.156;2023-07-02T13:08:27;25.50;96.10
16980;DHT22;42288;52.182;21.156;2023-07-02T13:10:52;25.80;94.00
16980;DHT22;42288;52.182;21.156;2023-07-02T13:13:18;25.90;94.00
16980;DHT22;42288;52.182;21.156;2023-07-02T13:15:44;26.00;93.20
16980;DHT22;42288;52.182;21.156;2023-07-02T13:18:09;25.90;92.90
16980;DHT22;42288;52.182;21.156;2023-07-02T13:20:35;25.80;92.30
16980;DHT22;42288;52.182;21.156;2023-07-02T13:23:03;26.10;91.10
16980;DHT22;42288;52.182;21.156;2023-07-02T13:25:28;26.40;91.10
16980;DHT22;42288;52.182;21.156;2023-07-02T13:27:54;26.60;91.40
16980;DHT22;42288;52.182;21.156;2023-07-02T13:30:20;26.50;89.30
16980;DHT22;42288;52.182;21.156;2023-07-02T13:32:45;26.30;87.20
16980;DHT22;42288;52.182;21.156;2023-07-02T13:35:11;26.20;85.90
16980;DHT22;42288;52.182;21.156;2023-07-02T13:37:37;26.10;83.20
16980;DHT22;42288;52.182;21.156;2023-07-02T13:40:02;26.10;84.30
16980;DHT22;42288;52.182;21.156;2023-07-02T13:42:30;25.60;81.80
16980;DHT22;42288;52.182;21.156;2023-07-02T13:44:55;25.50;83.70
16980;DHT22;42288;52.182;21.156;2023-07-02T13:47:21;25.40;85.20
16980;DHT22;42288;52.182;21.156;2023-07-02T13:49:47;25.30;85.20
16980;DHT22;42288;52.182;21.156;2023-07-02T13:52:13;25.10;85.70
16980;DHT22;42288;52.182;21.156;2023-07-02T13:54:38;24.90;85.40
16980;DHT22;42288;52.182;21.156;2023-07-02T13:57:04;24.90;84.80
16980;DHT22;42288;52.182;21.156;2023-07-02T13:59:30;24.80;85.00
16980;DHT22;42288;52.182;21.156;2023-07-02T14:01:55;24.70;87.00
16980;DHT22;42288;52.182;21.156;2023-07-02T14:04:21;24.60;86.60
16980;DHT22;42288;52.182;21.156;2023-07-02T14:06:46;24.60;87.20
16980;DHT22;42288;52.182;21.156;2023-07-02T14:09:12;24.60;88.00
16980;DHT22;42288;52.182;21.156;2023-07-02T14:11:40;24.40;85.60
16980;DHT22;42288;52.182;21.156;2023-07-02T14:14:06;24.50;88.70
16980;DHT22;42288;52.182;21.156;2023-07-02T14:16:32;24.40;86.90
16980;DHT22;42288;52.182;21.156;2023-07-02T14:18:57;24.40;90.20
16980;DHT22;42288;52.182;21.156;2023-07-02T14:21:23;24.50;85.20
16980;DHT22;42288;52.182;21.156;2023-07-02T14:23:49;24.80;85.20
16980;DHT22;42288;52.182;21.156;2023-07-02T14:26:15;25.00;85.20
16980;DHT22;42288;52.182;21.156;2023-07-02T14:28:40;25.10;86.20
16980;DHT22;42288;52.182;21.156;2023-07-02T14:31:07;25.30;87.70
16980;DHT22;42288;52.182;21.156;2023-07-02T14:33:35;24.90;83.70
16980;DHT22;42288;52.182;21.156;2023-07-02T14:36:02;25.00;82.50
16980;DHT22;42288;52.182;21.156;2023-07-02T14:38:28;25.10;85.00
16980;DHT22;42288;52.182;21.156;2023-07-02T14:40:54;25.00;83.70
16980;DHT22;42288;52.182;21.156;2023-07-02T14:43:23;25.00;82.70
16980;DHT22;42288;52.182;21.156;2023-07-02T14:45:52;25.10;80.90
16980;DHT22;42288;52.182;21.156;2023-07-02T14:48:18;25.20;83.10
16980;DHT22;42288;52.182;21.156;2023-07-02T14:50:54;25.30;81.40
16980;DHT22;42288;52.182;21.156;2023-07-02T14:53:20;25.20;83.20
16980;DHT22;42288;52.182;21.156;2023-07-02T14:55:47;25.00;82.60
16980;DHT22;42288;52.182;21.156;2023-07-02T14:58:14;24.80;82.00
16980;DHT22;42288;52.182;21.156;2023-07-02T15:00:47;24.90;83.50
16980;DHT22;42288;52.182;21.156;2023-07-02T15:03:13;24.80;78.40
16980;DHT22;42288;52.182;21.156;2023-07-02T15:05:40;24.80;81.40
16980;DHT22;42288;52.182;21.156;2023-07-02T15:08:07;24.50;79.20
16980;DHT22;42288;52.182;21.156;2023-07-02T15:10:33;24.40;79.50
16980;DHT22;42288;52.182;21.156;2023-07-02T15:12:59;24.30;78.70
16980;DHT22;42288;52.182;21.156;2023-07-02T15:15:25;24.50;79.10